Wadestown, West Virginia
Current Conditions -  °F | °C
As of 4:53 PM on Tuesday 25 Nov 2014 (Local Time) from KMGW Reporting Station
Clear Clear  
Wind Chill: 44°   Ceiling: Unl
Heat Index: 49°   Visibility: 10mi
Dew Point: 24°   Wind: 12mph
Humidity: 38%   Direction: 260°W
Pressure: 30.06"   Gusts: NA
Location:  39.68°N, 80.34°W
Report Text: KMGW 252153Z 26010KT 10SM CLR 09/M04 A3006 RMK AO2 SLP184 T00941044
Loading
Personal Weather Stations






























Interactive Weather Map New forecast layout! Learn more

10-Day Weather Forecast

Advertisements
Track Severe Weather on mobile